Flight Track Log - Related Links

Times and Time Zones

All times are in EDT time to prevent confusion due to time zone crossing. See the UAL4422 flight status page for this flight to view local times or setup timezone preferences in your user account.

Time Position Orientation Groundspeed Altitude Reporting Facility
EDT Latitude Longitude Course Direction KTS MPH feet Rate Location/Type
Sun 06:24:51 PM 31.9003 -102.2142 113° Southeast 254 292 8,400  Level Fort Worth Center
Sun 06:25:51 PM 31.8619 -102.1242 117° Southeast 281 323 10,400 1,700 Climbing Fort Worth Center
Sun 06:26:51 PM 31.8108 -102.0358 124° Southeast 308 354 11,800 1,150 Climbing Fort Worth Center
Sun 06:27:51 PM 31.7558 -101.9403 124° Southeast 328 377 12,700 1,200 Climbing Fort Worth Center
Sun 06:28:00 PM 31.5493 -101.0059 110° East  Level FlightAware Approximate
Sun 06:28:51 PM 31.7033 -101.8375 121° Southeast 355 409 14,200  Level Fort Worth Center
Sun 06:29:00 PM 31.5121 -100.8886 115° Southeast  Level FlightAware Approximate
Sun 06:29:51 PM 31.6781 -101.7192 104° East 364 419 15,500  Level Fort Worth Center
Sun 06:30:51 PM 31.6469 -101.5958 106° East 370 426 16,600 1,450 Climbing Fort Worth Center
Sun 06:31:51 PM 31.6236 -101.4753 103° East 376 433 18,400 1,750 Climbing Fort Worth Center
Sun 06:32:51 PM 31.5919 -101.3519 107° East 382 440 20,100 1,550 Climbing Fort Worth Center
Sun 06:33:51 PM 31.5603 -101.2286 107° East 382 440 21,500 1,400 Climbing Fort Worth Center
Sun 06:34:51 PM 31.5308 -101.1033 105° East 387 445 22,900 750 Climbing Fort Worth Center
Sun 06:35:51 PM 31.4989 -100.9728 106° East 394 453 23,000 32 Climbing Fort Worth Center
Sun 06:37:56 PM 31.4261 -100.6686 106° East 483 556 23,000  Level Houston Center
Sun 06:38:58 PM 31.3894 -100.5147 106° East 491 565 23,000  Level Houston Center
Sun 06:40:00 PM 31.3453 -100.3636 109° East 491 565 23,000 97 Level Houston Center
Sun 06:41:02 PM 31.2939 -100.2147 112° Southeast 493 567 23,200 774 Climbing Houston Center
Sun 06:42:04 PM 31.2456 -100.0744 112° Southeast 466 536 24,600 1,403 Climbing Houston Center
Sun 06:43:06 PM 31.2008 -99.9439 112° Southeast 436 502 26,100 1,452 Climbing Houston Center
Sun 06:44:08 PM 31.1581 -99.8189 112° Southeast 417 480 27,600 1,403 Climbing Houston Center
Sun 06:45:10 PM 31.1183 -99.6742 108° East 394 453 29,000 677 Climbing Houston Center
Sun 06:46:12 PM 31.1086 -99.5425 95° East 407 468 29,000  Level Houston Center
Sun 06:47:14 PM 31.0986 -99.4047 95° East 424 488 29,000  Level Houston Center
Sun 06:48:16 PM 31.0883 -99.2606 95° East 440 506 29,000  Level Houston Center
Sun 06:49:18 PM 31.0756 -99.0994 95° East 449 517 29,000  Level Houston Center
Sun 06:50:20 PM 31.0642 -98.9494 95° East 457 526 29,000  Level Houston Center
Sun 06:51:22 PM 31.0517 -98.7986 95° East 462 532 29,000  Level Houston Center
Sun 06:52:24 PM 31.0397 -98.6472 95° East 465 535 29,000  Level Houston Center
Sun 06:53:25 PM 31.0275 -98.4933 95° East 470 541 29,000  Level Houston Center
Sun 06:54:27 PM 31.0153 -98.3394 95° East 472 543 29,000  Level Houston Center
Sun 06:55:29 PM 31.0022 -98.1867 96° East 471 542 29,000  Level Houston Center
Sun 06:56:31 PM 30.9881 -98.0092 95° East 470 541 29,000  Level Houston Center
Sun 06:57:33 PM 30.9744 -97.8567 96° East 468 539 29,000  Level Houston Center
Sun 06:58:35 PM 30.9611 -97.7036 96° East 470 541 29,000  Level Houston Center
Sun 06:59:37 PM 30.9478 -97.5528 96° East 466 536 29,000  Level Houston Center
Sun 07:00:39 PM 30.9342 -97.4000 96° East 469 540 29,000  Level Houston Center
Sun 07:01:41 PM 30.9203 -97.2419 96° East 472 543 29,000  Level Houston Center
Sun 07:02:43 PM 30.9053 -97.0753 96° East 488 562 29,000  Level Houston Center
Sun 07:03:45 PM 30.8906 -96.9214 96° East 475 547 29,000  Level Houston Center
Sun 07:04:47 PM 30.8767 -96.7686 96° East 473 544 29,000 -1,220 Level Houston Center
Sun 07:05:48 PM 30.8608 -96.6122 97° East 481 554 26,500 -2,439 Descending Houston Center
Sun 07:06:50 PM 30.8464 -96.4600 96° East 472 543 24,000 -1,200 Descending Houston Center
Sun 07:07:53 PM 30.8300 -96.3047 97° East 479 551 24,000 -726 Level Houston Center
Sun 07:08:54 PM 30.7339 -96.1653 129° Southeast 479 551 22,500 -2,293 Descending Houston Center
Sun 07:09:56 PM 30.6186 -96.1750 184° South 428 493 19,300 -3,195 Descending Houston Center
Sun 07:10:11 PM 30.5881 -96.1869 199° South 383 441 18,400 -3,387 Descending Houston Center
Sun 07:10:58 PM 30.5111 -96.1647 166° South 423 487 15,800 -3,358 Descending Houston Center
Sun 07:12:00 PM 30.4281 -96.0717 136° Southeast 412 474 12,300 -2,323 Descending Houston Center
Sun 07:13:02 PM 30.3442 -95.9956 142° Southeast 387 445 11,000 -1,220 Descending Houston Center
Sun 07:14:03 PM 30.2764 -95.9297 140° Southeast 333 383 9,800 -1,415 Descending Houston Center
Sun 07:15:05 PM 30.2158 -95.8669 138° Southeast 303 349 8,100 -1,694 Descending Houston Center
Sun 07:16:07 PM 30.1589 -95.8025 136° Southeast 292 336 6,300 -1,452 Descending Houston Center
Sun 07:17:09 PM 30.1028 -95.7394 136° Southeast 283 326 5,100 -629 Descending Houston Center
Sun 07:18:11 PM 30.0403 -95.6664 135° Southeast 268 308 5,000 -488 Descending Houston Center
Sun 07:19:12 PM 29.9894 -95.6058 134° Southeast 266 306 4,100 -885 Descending Houston Center

Login

Don't have an account? Register now (free) for customized features, flight alerts, and more!